Time;durP1;ratioP1;P1;durP2;ratioP2;P2;SDS_P1;SDS_P2;PMS_P1;PMS_P2;Temp;Humidity;BMP_temperature;BMP_pressure;BME280_temperature;BME280_humidity;BME280_pressure;Samples;Min_cycle;Max_cycle;Signal;HPM_P1;HPM_P2
2023/09/07 00:01:46;;;;;;;8.25;4.57;;;;;;;;;;5080940;28;20036;-42
2023/09/07 00:04:12;;;;;;;6.30;4.15;;;;;;;;;;5078140;28;20036;-44
2023/09/07 00:06:39;;;;;;;9.65;3.97;;;;;;;;;;5076122;28;20017;-47
2023/09/07 00:09:05;;;;;;;8.68;4.25;;;;;;;;;;5072141;28;20078;-43
2023/09/07 00:11:32;;;;;;;7.10;4.28;;;;;;;;;;5082561;28;20037;-44
2023/09/07 00:13:59;;;;;;;8.68;4.03;;;;;;;;;;5082022;28;20484;-44
2023/09/07 00:16:24;;;;;;;9.35;3.90;;;;;;;;;;5078527;28;20112;-47
2023/09/07 00:18:50;;;;;;;7.93;4.03;;;;;;;;;;5074641;28;20048;-40
2023/09/07 00:21:16;;;;;;;8.38;3.75;;;;;;;;;;5076794;28;20166;-43
2023/09/07 00:23:41;;;;;;;10.88;4.18;;;;;;;;;;5077060;28;20029;-42
2023/09/07 00:26:07;;;;;;;8.00;3.78;;;;;;;;;;5075887;28;20128;-44
2023/09/07 00:28:32;;;;;;;8.13;4.03;;;;;;;;;;5076260;28;20024;-46
2023/09/07 00:30:58;;;;;;;4.60;3.90;;;;;;;;;;5074966;28;20131;-44
2023/09/07 00:33:23;;;;;;;6.78;4.07;;;;;;;;;;5075801;28;20024;-43
2023/09/07 00:35:48;;;;;;;9.27;3.97;;;;;;;;;;5076006;28;20032;-42
2023/09/07 00:38:14;;;;;;;8.48;4.15;;;;;;;;;;5074286;28;20087;-43
2023/09/07 00:40:44;;;;;;;7.32;3.85;;;;;;;;;;5076027;28;20044;-43
2023/09/07 00:43:09;;;;;;;11.05;4.13;;;;;;;;;;5074224;28;20028;-42
2023/09/07 00:45:35;;;;;;;5.93;4.40;;;;;;;;;;5076037;28;20047;-45
2023/09/07 00:48:02;;;;;;;7.72;3.88;;;;;;;;;;5075737;28;20059;-44
2023/09/07 00:50:27;;;;;;;14.57;4.03;;;;;;;;;;5082922;28;20128;-44
2023/09/07 00:52:54;;;;;;;6.85;4.35;;;;;;;;;;5074666;28;20036;-45
2023/09/07 00:55:19;;;;;;;8.02;4.07;;;;;;;;;;5077231;28;20041;-41
2023/09/07 00:57:45;;;;;;;11.23;4.53;;;;;;;;;;5076686;28;20100;-42
2023/09/07 01:00:11;;;;;;;8.07;4.30;;;;;;;;;;5074360;28;20404;-42
2023/09/07 01:02:37;;;;;;;10.90;4.30;;;;;;;;;;5069010;28;20044;-45
2023/09/07 01:05:06;;;;;;;6.45;4.40;;;;;;;;;;5060764;28;20055;-45
2023/09/07 01:07:47;;;;;;;7.60;4.45;;;;;;;;;;5066894;28;20239;-43
2023/09/07 01:10:13;;;;;;;5.53;3.80;;;;;;;;;;5076590;28;20036;-44
2023/09/07 01:12:39;;;;;;;6.35;3.90;;;;;;;;;;5082676;28;20378;-45
2023/09/07 01:15:05;;;;;;;7.70;4.50;;;;;;;;;;5074096;28;20036;-45
2023/09/07 01:17:33;;;;;;;10.13;4.68;;;;;;;;;;5071814;28;20930;-45
2023/09/07 01:20:05;;;;;;;8.80;4.65;;;;;;;;;;5070873;28;20033;-44
2023/09/07 01:22:31;;;;;;;10.27;4.10;;;;;;;;;;5069469;28;20025;-45
2023/09/07 01:24:58;;;;;;;7.68;4.10;;;;;;;;;;5070743;28;20402;-45
2023/09/07 01:27:23;;;;;;;8.23;4.03;;;;;;;;;;5075382;28;20036;-43
2023/09/07 01:29:48;;;;;;;10.00;4.25;;;;;;;;;;5075321;28;20040;-45
2023/09/07 01:32:14;;;;;;;11.77;4.18;;;;;;;;;;5070494;28;20042;-43
2023/09/07 01:34:39;;;;;;;7.78;4.15;;;;;;;;;;5074854;28;20033;-42
2023/09/07 01:37:05;;;;;;;5.80;4.15;;;;;;;;;;5076441;28;20402;-41
2023/09/07 01:39:30;;;;;;;9.10;3.95;;;;;;;;;;5073816;28;20119;-45
2023/09/07 01:41:55;;;;;;;7.72;3.80;;;;;;;;;;5075816;28;20548;-42
2023/09/07 01:44:21;;;;;;;13.52;4.65;;;;;;;;;;5069742;28;20742;-43
2023/09/07 01:46:46;;;;;;;8.70;3.92;;;;;;;;;;5072975;28;20024;-45
2023/09/07 01:49:11;;;;;;;9.50;4.20;;;;;;;;;;5073144;28;20576;-42
2023/09/07 01:51:37;;;;;;;5.95;4.25;;;;;;;;;;5081523;28;20493;-46
2023/09/07 01:54:03;;;;;;;8.48;4.30;;;;;;;;;;5068730;28;20360;-43
2023/09/07 01:56:29;;;;;;;8.63;4.35;;;;;;;;;;5084826;28;20055;-43
2023/09/07 01:58:54;;;;;;;6.57;4.20;;;;;;;;;;5079331;28;20056;-45
2023/09/07 02:01:30;;;;;;;8.68;4.13;;;;;;;;;;5079306;28;20059;-43
2023/09/07 02:03:56;;;;;;;7.57;4.25;;;;;;;;;;5072864;28;20474;-42
2023/09/07 02:06:22;;;;;;;5.50;4.20;;;;;;;;;;5070464;28;20093;-43
2023/09/07 02:08:48;;;;;;;6.18;4.53;;;;;;;;;;5068406;28;20029;-41
2023/09/07 02:11:14;;;;;;;15.43;4.60;;;;;;;;;;5076422;28;20039;-47
2023/09/07 02:13:42;;;;;;;5.57;4.38;;;;;;;;;;5082798;28;20024;-45
2023/09/07 02:16:08;;;;;;;10.85;4.88;;;;;;;;;;5074147;28;20089;-44
2023/09/07 02:18:34;;;;;;;8.45;4.97;;;;;;;;;;5074421;28;20131;-44
2023/09/07 02:21:03;;;;;;;5.68;4.85;;;;;;;;;;5068343;28;20496;-44
2023/09/07 02:23:30;;;;;;;10.63;5.07;;;;;;;;;;5068300;28;20477;-43
2023/09/07 02:25:55;;;;;;;11.32;4.40;;;;;;;;;;5071420;28;20444;-45
2023/09/07 02:28:20;;;;;;;11.02;4.65;;;;;;;;;;5073636;28;20077;-43
2023/09/07 02:30:46;;;;;;;8.55;4.78;;;;;;;;;;5073690;28;20044;-45
2023/09/07 02:33:11;;;;;;;4.97;4.47;;;;;;;;;;5075575;28;20036;-43
2023/09/07 02:35:37;;;;;;;13.77;4.60;;;;;;;;;;5074051;28;20024;-44
2023/09/07 02:38:03;;;;;;;9.75;5.00;;;;;;;;;;5069952;28;20544;-45
2023/09/07 02:40:28;;;;;;;9.38;4.32;;;;;;;;;;5074260;28;20044;-43
2023/09/07 02:42:54;;;;;;;8.23;4.38;;;;;;;;;;5083828;28;20493;-43
2023/09/07 02:45:19;;;;;;;7.70;4.85;;;;;;;;;;5072834;28;20072;-44
2023/09/07 02:47:44;;;;;;;7.05;4.28;;;;;;;;;;5073240;28;20040;-44
2023/09/07 02:50:10;;;;;;;10.45;4.25;;;;;;;;;;5074882;28;20037;-46
2023/09/07 02:52:35;;;;;;;6.78;4.03;;;;;;;;;;5072755;28;20039;-43
2023/09/07 02:55:01;;;;;;;10.40;4.18;;;;;;;;;;5073593;28;20045;-43
2023/09/07 02:57:26;;;;;;;9.35;4.22;;;;;;;;;;5075605;28;20099;-43
2023/09/07 02:59:53;;;;;;;12.38;4.22;;;;;;;;;;5072636;28;20126;-42
2023/09/07 03:02:18;;;;;;;6.88;4.70;;;;;;;;;;5073167;28;20017;-43
2023/09/07 03:04:43;;;;;;;10.60;4.20;;;;;;;;;;5070132;28;20513;-44
2023/09/07 03:07:09;;;;;;;6.13;4.45;;;;;;;;;;5072363;28;20052;-44
2023/09/07 03:09:34;;;;;;;11.00;3.95;;;;;;;;;;5074343;28;20066;-41
2023/09/07 03:12:00;;;;;;;9.07;4.38;;;;;;;;;;5073534;28;20132;-42
2023/09/07 03:14:25;;;;;;;7.18;4.18;;;;;;;;;;5069503;28;20386;-43
2023/09/07 03:16:51;;;;;;;8.48;4.72;;;;;;;;;;5072803;28;20047;-47
2023/09/07 03:19:16;;;;;;;8.57;4.57;;;;;;;;;;5074930;28;20059;-45
2023/09/07 03:21:42;;;;;;;8.43;4.30;;;;;;;;;;5075252;28;20055;-45
2023/09/07 03:24:07;;;;;;;5.32;4.82;;;;;;;;;;5072382;28;20116;-43
2023/09/07 03:26:33;;;;;;;6.97;4.40;;;;;;;;;;5062153;28;20035;-48
2023/09/07 03:28:58;;;;;;;10.98;4.72;;;;;;;;;;5070940;28;20029;-44
2023/09/07 03:31:24;;;;;;;13.13;4.40;;;;;;;;;;5077609;28;20032;-42
2023/09/07 03:33:49;;;;;;;10.98;4.72;;;;;;;;;;5077783;28;20029;-41
2023/09/07 03:36:15;;;;;;;6.07;4.78;;;;;;;;;;5077466;28;20024;-45
2023/09/07 03:38:41;;;;;;;8.15;4.82;;;;;;;;;;5084926;28;20028;-44
2023/09/07 03:41:07;;;;;;;11.70;5.05;;;;;;;;;;5070217;28;20059;-41
2023/09/07 03:43:32;;;;;;;13.05;5.28;;;;;;;;;;5074619;28;20412;-42
2023/09/07 03:45:58;;;;;;;8.50;4.57;;;;;;;;;;5078178;28;20029;-45
2023/09/07 03:48:23;;;;;;;10.65;4.63;;;;;;;;;;5070247;28;20054;-44
2023/09/07 03:50:48;;;;;;;8.68;4.95;;;;;;;;;;5077492;28;20693;-46
2023/09/07 03:53:14;;;;;;;8.52;4.78;;;;;;;;;;5077778;28;20029;-43
2023/09/07 03:55:43;;;;;;;6.32;4.63;;;;;;;;;;5077866;28;20059;-44
2023/09/07 03:58:10;;;;;;;9.40;4.47;;;;;;;;;;5073778;28;20085;-42
2023/09/07 04:00:39;;;;;;;8.65;5.03;;;;;;;;;;5075954;28;20037;-43
2023/09/07 04:03:05;;;;;;;8.30;4.63;;;;;;;;;;5071558;28;20036;-42
2023/09/07 04:05:31;;;;;;;5.55;3.80;;;;;;;;;;5078128;28;20029;-43
2023/09/07 04:07:57;;;;;;;8.68;4.10;;;;;;;;;;5075880;28;20029;-42
2023/09/07 04:10:22;;;;;;;7.22;4.57;;;;;;;;;;5073245;28;20028;-43
2023/09/07 04:12:47;;;;;;;10.05;3.97;;;;;;;;;;5072511;28;20032;-42
2023/09/07 04:15:13;;;;;;;13.13;4.30;;;;;;;;;;5072589;28;20056;-45
2023/09/07 04:17:40;;;;;;;9.40;4.28;;;;;;;;;;5074243;28;20056;-46
2023/09/07 04:20:07;;;;;;;7.07;4.10;;;;;;;;;;5077619;28;20532;-41
2023/09/07 04:22:33;;;;;;;12.57;4.45;;;;;;;;;;5078091;28;20135;-41
2023/09/07 04:24:58;;;;;;;15.07;4.70;;;;;;;;;;5078375;28;20075;-46
2023/09/07 04:27:24;;;;;;;8.18;4.60;;;;;;;;;;5076269;28;20035;-46
2023/09/07 04:29:49;;;;;;;7.78;3.90;;;;;;;;;;5071295;28;20075;-41
2023/09/07 04:32:15;;;;;;;6.68;4.25;;;;;;;;;;5075535;28;20037;-46
2023/09/07 04:34:40;;;;;;;7.90;4.13;;;;;;;;;;5073825;28;20037;-45
2023/09/07 04:37:06;;;;;;;6.57;3.95;;;;;;;;;;5070954;28;20500;-44
2023/09/07 04:39:31;;;;;;;8.18;4.60;;;;;;;;;;5069046;28;20044;-41
2023/09/07 04:41:57;;;;;;;7.35;4.97;;;;;;;;;;5075064;28;20028;-44
2023/09/07 04:44:22;;;;;;;12.52;4.40;;;;;;;;;;5076092;28;20063;-41
2023/09/07 04:46:47;;;;;;;17.33;5.00;;;;;;;;;;5074172;28;20044;-44
2023/09/07 04:49:13;;;;;;;9.18;4.07;;;;;;;;;;5069301;28;20090;-42
2023/09/07 04:51:39;;;;;;;18.80;5.07;;;;;;;;;;5076267;28;21032;-44
2023/09/07 04:54:04;;;;;;;10.00;4.38;;;;;;;;;;5073906;28;20044;-42
2023/09/07 04:56:30;;;;;;;10.63;4.38;;;;;;;;;;5077869;28;20051;-43
2023/09/07 04:58:55;;;;;;;7.38;4.68;;;;;;;;;;5071192;28;20083;-45
2023/09/07 05:01:20;;;;;;;5.10;4.22;;;;;;;;;;5075474;28;20078;-43
2023/09/07 05:03:46;;;;;;;7.80;4.28;;;;;;;;;;5074075;28;20125;-43
2023/09/07 05:06:11;;;;;;;8.15;4.65;;;;;;;;;;5076217;28;20113;-45
2023/09/07 05:08:37;;;;;;;9.88;4.50;;;;;;;;;;5078367;28;20024;-43
2023/09/07 05:11:03;;;;;;;8.70;3.78;;;;;;;;;;5073899;28;20033;-43
2023/09/07 05:13:29;;;;;;;11.57;4.95;;;;;;;;;;5073502;28;20731;-41
2023/09/07 05:15:56;;;;;;;12.57;4.88;;;;;;;;;;5070714;28;20087;-43
2023/09/07 05:18:22;;;;;;;11.93;4.88;;;;;;;;;;5073320;28;20078;-45
2023/09/07 05:20:54;;;;;;;6.47;4.38;;;;;;;;;;5071980;28;20092;-45
2023/09/07 05:23:20;;;;;;;6.47;3.75;;;;;;;;;;5075338;28;20036;-45
2023/09/07 05:25:47;;;;;;;8.80;3.88;;;;;;;;;;5072034;28;20101;-43
2023/09/07 05:28:16;;;;;;;6.15;4.13;;;;;;;;;;5071692;28;20081;-43
2023/09/07 05:30:42;;;;;;;6.50;3.55;;;;;;;;;;5071477;28;20100;-45
2023/09/07 05:33:12;;;;;;;7.90;3.65;;;;;;;;;;5074032;28;20059;-44
2023/09/07 05:35:38;;;;;;;12.27;4.38;;;;;;;;;;5071874;28;20047;-42
2023/09/07 05:38:06;;;;;;;9.15;4.28;;;;;;;;;;5070487;28;20028;-45
2023/09/07 05:40:40;;;;;;;7.95;4.38;;;;;;;;;;5070471;28;20112;-43
2023/09/07 05:43:06;;;;;;;18.17;4.28;;;;;;;;;;5071161;28;21561;-44
2023/09/07 05:45:41;;;;;;;9.23;4.47;;;;;;;;;;5071147;28;20032;-47
2023/09/07 05:48:07;;;;;;;7.35;3.78;;;;;;;;;;5067007;28;20025;-43
2023/09/07 05:50:37;;;;;;;6.97;3.72;;;;;;;;;;5069774;28;20071;-44
2023/09/07 05:53:03;;;;;;;12.30;3.90;;;;;;;;;;5067843;28;20066;-43
2023/09/07 05:55:29;;;;;;;8.57;3.88;;;;;;;;;;5071400;28;20098;-45
2023/09/07 05:57:55;;;;;;;12.60;4.50;;;;;;;;;;5077608;28;20167;-42
2023/09/07 06:00:21;;;;;;;10.05;3.60;;;;;;;;;;5074788;28;20052;-47
2023/09/07 06:02:47;;;;;;;11.80;4.15;;;;;;;;;;5070919;28;20036;-44
2023/09/07 06:05:13;;;;;;;6.78;3.80;;;;;;;;;;5071060;28;20036;-44
2023/09/07 06:07:38;;;;;;;7.40;3.90;;;;;;;;;;5065919;28;20051;-43
2023/09/07 06:10:05;;;;;;;6.00;3.60;;;;;;;;;;5065167;28;20555;-46
2023/09/07 06:12:31;;;;;;;9.10;3.47;;;;;;;;;;5069602;28;20028;-44
2023/09/07 06:14:57;;;;;;;8.13;3.58;;;;;;;;;;5068340;28;20378;-45
2023/09/07 06:17:22;;;;;;;6.13;3.83;;;;;;;;;;5072735;28;20070;-48
2023/09/07 06:19:47;;;;;;;10.00;3.88;;;;;;;;;;5068687;28;20036;-42
2023/09/07 06:22:13;;;;;;;8.15;3.50;;;;;;;;;;5074792;28;20049;-44
2023/09/07 06:24:38;;;;;;;4.72;4.00;;;;;;;;;;5066482;28;20033;-45
2023/09/07 06:27:04;;;;;;;12.52;3.67;;;;;;;;;;5068875;28;20036;-47
2023/09/07 06:29:29;;;;;;;5.20;3.47;;;;;;;;;;5070034;28;20057;-44
2023/09/07 06:31:54;;;;;;;6.85;3.70;;;;;;;;;;5074620;28;20047;-43
2023/09/07 06:34:20;;;;;;;5.10;3.67;;;;;;;;;;5067431;28;20033;-45
2023/09/07 06:36:45;;;;;;;4.70;3.47;;;;;;;;;;5072134;28;20035;-45
2023/09/07 06:39:11;;;;;;;7.10;3.83;;;;;;;;;;5068598;28;20036;-46
2023/09/07 06:41:36;;;;;;;6.55;3.58;;;;;;;;;;5076005;28;20021;-45
2023/09/07 06:44:01;;;;;;;3.92;3.40;;;;;;;;;;5070754;28;20024;-48
2023/09/07 06:46:27;;;;;;;5.80;3.28;;;;;;;;;;5068692;28;20063;-43
2023/09/07 06:48:52;;;;;;;4.22;3.53;;;;;;;;;;5066125;28;20505;-48
2023/09/07 06:51:18;;;;;;;10.13;3.65;;;;;;;;;;5075600;28;20036;-45
2023/09/07 06:53:43;;;;;;;5.63;3.60;;;;;;;;;;5067121;28;20163;-47
2023/09/07 06:56:10;;;;;;;7.32;3.58;;;;;;;;;;5074095;28;20059;-45
2023/09/07 06:58:35;;;;;;;7.18;3.17;;;;;;;;;;5071401;28;20074;-46
2023/09/07 07:01:02;;;;;;;12.05;4.22;;;;;;;;;;5073633;28;20790;-45
2023/09/07 07:03:28;;;;;;;6.95;3.92;;;;;;;;;;5078682;28;20112;-46
2023/09/07 07:05:54;;;;;;;5.72;3.40;;;;;;;;;;5069458;28;20037;-50
2023/09/07 07:08:20;;;;;;;7.15;3.88;;;;;;;;;;5077100;28;20034;-46
2023/09/07 07:10:45;;;;;;;3.50;3.20;;;;;;;;;;5073598;28;20099;-43
2023/09/07 07:13:11;;;;;;;4.03;3.60;;;;;;;;;;5074877;28;20021;-43
2023/09/07 07:15:36;;;;;;;5.00;3.67;;;;;;;;;;5076464;28;20037;-44
2023/09/07 07:18:08;;;;;;;7.40;3.60;;;;;;;;;;5076813;28;20493;-44
2023/09/07 07:20:41;;;;;;;10.88;3.47;;;;;;;;;;5078369;28;20555;-44
2023/09/07 07:23:07;;;;;;;7.90;3.60;;;;;;;;;;5070665;28;20027;-43
2023/09/07 07:25:33;;;;;;;11.63;3.70;;;;;;;;;;5078915;28;20036;-44
2023/09/07 07:28:05;;;;;;;6.97;3.33;;;;;;;;;;5072721;28;20040;-46
2023/09/07 07:30:36;;;;;;;4.68;3.20;;;;;;;;;;5074534;28;20041;-43
2023/09/07 07:33:03;;;;;;;9.90;3.90;;;;;;;;;;5049743;28;20032;-42
2023/09/07 07:35:30;;;;;;;9.18;3.53;;;;;;;;;;5074573;28;20055;-44
2023/09/07 07:37:55;;;;;;;8.88;3.55;;;;;;;;;;5078327;28;20131;-43
2023/09/07 07:40:20;;;;;;;9.20;3.80;;;;;;;;;;5078076;28;20082;-42
2023/09/07 07:42:47;;;;;;;11.50;3.58;;;;;;;;;;5090238;28;20089;-44
2023/09/07 07:45:12;;;;;;;18.65;3.78;;;;;;;;;;5068935;28;20033;-42
2023/09/07 07:47:38;;;;;;;5.10;3.50;;;;;;;;;;5073988;28;20017;-44
2023/09/07 07:50:04;;;;;;;3.45;3.15;;;;;;;;;;5077360;28;20047;-45
2023/09/07 07:52:30;;;;;;;4.82;3.35;;;;;;;;;;5072399;28;20035;-43
2023/09/07 07:54:55;;;;;;;3.75;3.05;;;;;;;;;;5075121;28;20045;-44
2023/09/07 07:57:21;;;;;;;6.38;3.70;;;;;;;;;;5074911;28;20049;-45
2023/09/07 07:59:46;;;;;;;7.10;3.50;;;;;;;;;;5078099;28;20071;-43
2023/09/07 08:02:12;;;;;;;7.57;3.63;;;;;;;;;;5070554;28;20025;-42
2023/09/07 08:04:37;;;;;;;9.63;3.30;;;;;;;;;;5068804;28;20052;-46
2023/09/07 08:07:08;;;;;;;4.93;3.33;;;;;;;;;;5064904;28;20064;-43
2023/09/07 08:09:34;;;;;;;7.82;3.40;;;;;;;;;;5076566;28;20044;-44
2023/09/07 08:12:02;;;;;;;5.85;3.55;;;;;;;;;;5076419;28;20024;-46
2023/09/07 08:14:28;;;;;;;8.80;3.80;;;;;;;;;;5081687;28;20040;-47
2023/09/07 08:16:54;;;;;;;3.63;3.30;;;;;;;;;;5072215;28;20166;-47
2023/09/07 08:19:19;;;;;;;7.32;3.20;;;;;;;;;;5077449;28;20048;-47
2023/09/07 08:21:46;;;;;;;7.00;3.10;;;;;;;;;;5071760;28;20021;-43
2023/09/07 08:24:11;;;;;;;6.15;3.40;;;;;;;;;;5068430;28;20040;-48
2023/09/07 08:26:37;;;;;;;7.93;3.47;;;;;;;;;;5076214;28;20647;-47
2023/09/07 08:29:06;;;;;;;4.22;3.33;;;;;;;;;;5074027;28;20060;-43
2023/09/07 08:31:33;;;;;;;5.70;3.17;;;;;;;;;;5075562;28;20025;-43
2023/09/07 08:34:04;;;;;;;3.90;3.38;;;;;;;;;;5075287;28;20111;-48
2023/09/07 08:36:32;;;;;;;3.78;3.40;;;;;;;;;;5078207;28;20028;-47
2023/09/07 08:39:00;;;;;;;4.50;3.38;;;;;;;;;;5075758;28;20051;-47
2023/09/07 08:41:27;;;;;;;9.00;3.10;;;;;;;;;;5073971;28;20024;-47
2023/09/07 08:43:55;;;;;;;5.35;3.20;;;;;;;;;;5076182;28;20040;-46
2023/09/07 08:46:22;;;;;;;2.88;2.63;;;;;;;;;;5073543;28;20032;-43
2023/09/07 08:48:50;;;;;;;5.10;3.10;;;;;;;;;;5071859;28;20103;-43
2023/09/07 08:51:18;;;;;;;3.53;3.22;;;;;;;;;;5072288;28;20024;-42
2023/09/07 08:53:46;;;;;;;4.60;2.40;;;;;;;;;;5077804;28;20028;-46
2023/09/07 08:56:12;;;;;;;2.70;2.38;;;;;;;;;;5076216;28;20049;-43
2023/09/07 08:58:40;;;;;;;7.00;2.83;;;;;;;;;;5070258;28;20040;-44
2023/09/07 09:01:05;;;;;;;5.10;2.60;;;;;;;;;;5084735;28;20425;-44
2023/09/07 09:03:31;;;;;;;3.30;2.40;;;;;;;;;;5070411;28;20104;-42
2023/09/07 09:05:56;;;;;;;4.13;2.50;;;;;;;;;;5071149;28;20029;-45
2023/09/07 09:08:24;;;;;;;3.88;2.70;;;;;;;;;;5073852;28;20036;-47
2023/09/07 09:11:00;;;;;;;4.43;2.65;;;;;;;;;;5071004;28;20048;-48
2023/09/07 09:13:32;;;;;;;4.50;2.13;;;;;;;;;;5082505;28;20028;-46
2023/09/07 09:16:01;;;;;;;8.10;3.17;;;;;;;;;;5075706;28;20516;-45
2023/09/07 09:18:27;;;;;;;5.15;2.60;;;;;;;;;;5069940;28;20090;-45
2023/09/07 09:20:54;;;;;;;2.75;2.47;;;;;;;;;;5073486;28;20040;-47
2023/09/07 09:23:20;;;;;;;7.07;2.42;;;;;;;;;;5071812;28;20135;-48
2023/09/07 09:25:47;;;;;;;6.72;2.60;;;;;;;;;;5076179;28;20064;-45
2023/09/07 09:28:13;;;;;;;4.85;2.97;;;;;;;;;;5077602;28;20032;-43
2023/09/07 09:30:38;;;;;;;3.65;2.88;;;;;;;;;;5079085;28;20062;-44
2023/09/07 09:33:05;;;;;;;3.95;2.90;;;;;;;;;;5067835;28;20639;-44
2023/09/07 09:35:31;;;;;;;8.15;2.78;;;;;;;;;;5076317;28;20509;-44
2023/09/07 09:38:04;;;;;;;10.00;3.35;;;;;;;;;;5073325;28;20082;-49
2023/09/07 09:40:30;;;;;;;5.97;3.42;;;;;;;;;;5075014;28;20024;-46
2023/09/07 09:42:58;;;;;;;6.38;3.17;;;;;;;;;;5072884;28;20028;-50
2023/09/07 09:45:25;;;;;;;6.63;3.58;;;;;;;;;;5069520;28;20068;-48
2023/09/07 09:47:54;;;;;;;5.13;3.08;;;;;;;;;;5068446;28;20020;-47
2023/09/07 09:50:20;;;;;;;7.97;2.88;;;;;;;;;;5069541;28;20131;-48
2023/09/07 09:52:47;;;;;;;5.28;3.00;;;;;;;;;;5072460;28;20029;-45
2023/09/07 09:55:13;;;;;;;6.25;3.35;;;;;;;;;;5074152;28;20090;-47
2023/09/07 09:57:39;;;;;;;7.85;3.17;;;;;;;;;;5067874;28;20024;-45
2023/09/07 10:03:01;;;;;;;5.53;3.20;;;;;;;;;;5073544;28;20051;-49
2023/09/07 10:05:27;;;;;;;7.50;3.25;;;;;;;;;;5072258;28;20039;-45
2023/09/07 10:07:52;;;;;;;4.57;2.92;;;;;;;;;;5075048;28;20025;-46
2023/09/07 10:10:19;;;;;;;6.82;2.55;;;;;;;;;;5074589;28;20142;-45
2023/09/07 10:12:51;;;;;;;4.35;2.80;;;;;;;;;;5071556;28;20436;-45
2023/09/07 10:15:27;;;;;;;10.95;3.28;;;;;;;;;;5073170;28;20493;-45
2023/09/07 10:18:13;;;;;;;8.35;3.10;;;;;;;;;;5072340;28;20050;-46
2023/09/07 10:20:58;;;;;;;6.60;2.97;;;;;;;;;;5073661;28;20032;-45
2023/09/07 10:23:35;;;;;;;5.15;2.88;;;;;;;;;;5071262;28;20024;-44
2023/09/07 10:26:03;;;;;;;8.93;3.00;;;;;;;;;;5073128;28;20079;-44
2023/09/07 10:28:29;;;;;;;5.70;3.20;;;;;;;;;;5073917;28;20031;-43
2023/09/07 10:31:04;;;;;;;6.72;2.95;;;;;;;;;;5075730;28;20032;-49
2023/09/07 10:33:32;;;;;;;8.00;3.10;;;;;;;;;;5072050;28;20039;-46
2023/09/07 10:35:58;;;;;;;3.90;3.08;;;;;;;;;;5065611;28;20033;-47
2023/09/07 10:38:24;;;;;;;4.85;3.05;;;;;;;;;;5071776;28;20039;-46
2023/09/07 10:40:57;;;;;;;3.85;2.72;;;;;;;;;;5068083;28;20090;-48
2023/09/07 10:43:23;;;;;;;3.72;2.65;;;;;;;;;;5062173;28;20039;-46
2023/09/07 10:45:49;;;;;;;5.03;2.90;;;;;;;;;;5074652;28;20580;-48
2023/09/07 10:48:17;;;;;;;6.95;3.10;;;;;;;;;;5075526;28;20425;-46
2023/09/07 10:50:44;;;;;;;5.70;3.58;;;;;;;;;;5071607;28;20041;-49
2023/09/07 10:53:11;;;;;;;7.47;2.88;;;;;;;;;;5070049;28;20038;-46
2023/09/07 10:55:40;;;;;;;5.32;3.00;;;;;;;;;;5074861;28;20041;-45
2023/09/07 10:58:06;;;;;;;5.95;2.83;;;;;;;;;;5070585;28;20037;-46
2023/09/07 11:00:32;;;;;;;4.47;2.85;;;;;;;;;;5073265;28;20151;-48
2023/09/07 11:02:57;;;;;;;5.70;3.17;;;;;;;;;;5072273;28;20052;-48
2023/09/07 11:05:23;;;;;;;7.50;2.92;;;;;;;;;;5067736;28;20041;-45
2023/09/07 11:07:48;;;;;;;4.85;3.17;;;;;;;;;;5074150;28;20047;-43
2023/09/07 11:10:14;;;;;;;4.88;3.13;;;;;;;;;;5072730;28;20628;-47
2023/09/07 11:12:40;;;;;;;5.10;2.67;;;;;;;;;;5069198;28;20052;-43
2023/09/07 11:15:09;;;;;;;8.60;3.03;;;;;;;;;;5071525;28;20036;-49
2023/09/07 11:17:38;;;;;;;3.58;2.83;;;;;;;;;;5074293;28;20040;-49
2023/09/07 11:20:06;;;;;;;4.40;2.50;;;;;;;;;;5061253;28;20033;-47
2023/09/07 11:22:32;;;;;;;8.00;3.35;;;;;;;;;;5073726;28;20024;-49
2023/09/07 11:25:00;;;;;;;7.43;3.00;;;;;;;;;;5067978;28;20094;-50
2023/09/07 11:27:29;;;;;;;6.13;3.10;;;;;;;;;;5063306;28;20309;-49
2023/09/07 11:29:56;;;;;;;16.88;3.22;;;;;;;;;;5069898;28;20041;-49
2023/09/07 11:32:23;;;;;;;3.63;2.63;;;;;;;;;;5072598;28;20375;-45
2023/09/07 11:34:50;;;;;;;5.65;2.60;;;;;;;;;;5074081;28;20029;-47
2023/09/07 11:37:23;;;;;;;6.80;2.80;;;;;;;;;;5074451;28;20029;-48
2023/09/07 11:39:48;;;;;;;7.88;3.33;;;;;;;;;;5074653;28;20040;-44
2023/09/07 11:42:14;;;;;;;6.53;2.45;;;;;;;;;;5073325;28;20081;-48
2023/09/07 11:44:39;;;;;;;6.75;2.80;;;;;;;;;;5073054;28;20041;-49
2023/09/07 11:47:05;;;;;;;3.97;3.03;;;;;;;;;;5068458;28;20064;-50
2023/09/07 11:49:31;;;;;;;7.70;3.03;;;;;;;;;;5076841;28;20044;-47
2023/09/07 11:51:57;;;;;;;8.02;3.00;;;;;;;;;;5074336;28;20450;-48
2023/09/07 11:54:22;;;;;;;5.40;2.53;;;;;;;;;;5077380;28;20127;-44
2023/09/07 11:56:48;;;;;;;5.70;2.75;;;;;;;;;;5076630;28;20052;-49
2023/09/07 11:59:13;;;;;;;6.50;3.08;;;;;;;;;;5074645;28;20039;-51
2023/09/07 12:01:39;;;;;;;4.10;2.70;;;;;;;;;;5076487;28;20432;-49
2023/09/07 12:04:06;;;;;;;3.72;2.53;;;;;;;;;;5075815;28;20047;-44
2023/09/07 12:06:32;;;;;;;6.57;2.85;;;;;;;;;;5078554;28;20052;-48
2023/09/07 12:09:01;;;;;;;2.30;2.10;;;;;;;;;;5076070;28;20062;-47
2023/09/07 12:11:27;;;;;;;7.07;2.63;;;;;;;;;;5077281;28;20032;-49
2023/09/07 12:13:52;;;;;;;9.50;2.65;;;;;;;;;;5077088;28;20081;-47
2023/09/07 12:16:18;;;;;;;6.05;2.55;;;;;;;;;;5077542;28;20513;-47
2023/09/07 12:18:43;;;;;;;8.80;2.65;;;;;;;;;;5076928;28;20016;-46
2023/09/07 12:21:09;;;;;;;7.28;2.60;;;;;;;;;;5075744;28;20028;-48
2023/09/07 12:23:34;;;;;;;5.47;2.75;;;;;;;;;;5077486;28;20036;-44
2023/09/07 12:26:01;;;;;;;4.85;2.65;;;;;;;;;;5076694;28;20110;-47
2023/09/07 12:28:27;;;;;;;4.97;2.50;;;;;;;;;;5078701;28;20064;-49
2023/09/07 12:30:52;;;;;;;5.60;2.92;;;;;;;;;;5072132;28;20033;-47
2023/09/07 12:33:17;;;;;;;6.95;2.72;;;;;;;;;;5085530;28;20101;-50
2023/09/07 12:35:43;;;;;;;10.18;2.70;;;;;;;;;;5081510;28;20041;-46
2023/09/07 12:38:10;;;;;;;8.20;2.63;;;;;;;;;;5077611;28;20021;-47
2023/09/07 12:40:36;;;;;;;5.65;2.60;;;;;;;;;;5074808;28;20116;-47
2023/09/07 12:43:02;;;;;;;8.18;2.45;;;;;;;;;;5068536;28;20459;-46
2023/09/07 12:45:27;;;;;;;11.23;2.70;;;;;;;;;;5075869;28;20104;-46
2023/09/07 12:47:53;;;;;;;2.83;2.35;;;;;;;;;;5076766;28;20029;-45
2023/09/07 12:50:18;;;;;;;3.25;2.55;;;;;;;;;;5074823;28;20143;-45
2023/09/07 12:52:43;;;;;;;3.58;2.17;;;;;;;;;;5077123;28;20123;-49
2023/09/07 12:55:09;;;;;;;4.90;2.28;;;;;;;;;;5071287;28;20451;-44
2023/09/07 12:57:35;;;;;;;2.72;2.42;;;;;;;;;;5077982;28;20596;-48
2023/09/07 13:00:03;;;;;;;10.45;2.80;;;;;;;;;;5075556;28;20064;-47
2023/09/07 13:02:28;;;;;;;6.38;2.60;;;;;;;;;;5064875;28;20029;-48
2023/09/07 13:04:55;;;;;;;8.07;2.35;;;;;;;;;;5074559;28;20058;-44
2023/09/07 13:07:21;;;;;;;5.57;2.38;;;;;;;;;;5077336;28;20086;-46
2023/09/07 13:09:46;;;;;;;12.02;2.70;;;;;;;;;;5074622;28;20044;-48
2023/09/07 13:12:12;;;;;;;8.50;2.80;;;;;;;;;;5076334;28;20543;-48
2023/09/07 13:14:37;;;;;;;4.25;2.88;;;;;;;;;;5084403;28;20032;-43
2023/09/07 13:17:03;;;;;;;4.60;2.25;;;;;;;;;;5076768;28;20155;-44
2023/09/07 13:19:29;;;;;;;16.98;2.60;;;;;;;;;;5075733;28;20029;-46
2023/09/07 13:21:54;;;;;;;8.43;2.20;;;;;;;;;;5072114;28;20060;-44
2023/09/07 13:24:20;;;;;;;8.70;2.55;;;;;;;;;;5076313;28;20068;-44
2023/09/07 13:26:50;;;;;;;2.60;2.40;;;;;;;;;;5077550;28;20028;-44
2023/09/07 13:29:16;;;;;;;2.70;1.88;;;;;;;;;;5075474;28;20040;-46
2023/09/07 13:31:41;;;;;;;6.25;2.60;;;;;;;;;;5076714;28;20107;-43
2023/09/07 13:34:06;;;;;;;4.35;2.60;;;;;;;;;;5076350;28;20044;-46
2023/09/07 13:36:32;;;;;;;3.00;2.28;;;;;;;;;;5076050;28;20028;-48
2023/09/07 13:38:59;;;;;;;4.13;2.40;;;;;;;;;;5074699;28;20028;-44
2023/09/07 13:41:24;;;;;;;8.10;2.40;;;;;;;;;;5075933;28;20039;-45
2023/09/07 13:43:50;;;;;;;9.13;2.30;;;;;;;;;;5072738;28;20474;-43
2023/09/07 13:46:15;;;;;;;6.03;2.33;;;;;;;;;;5078105;28;20107;-46
2023/09/07 13:48:41;;;;;;;10.75;2.78;;;;;;;;;;5075591;28;20492;-44
2023/09/07 13:51:07;;;;;;;7.90;2.40;;;;;;;;;;5066484;28;20065;-47
2023/09/07 13:53:32;;;;;;;7.00;2.42;;;;;;;;;;5081152;28;20039;-48
2023/09/07 13:55:58;;;;;;;10.43;2.60;;;;;;;;;;5070779;28;20068;-45
2023/09/07 13:58:23;;;;;;;3.42;2.67;;;;;;;;;;5072415;28;20024;-44
2023/09/07 14:00:50;;;;;;;4.03;2.47;;;;;;;;;;5080906;28;20950;-47
2023/09/07 14:03:16;;;;;;;7.45;2.90;;;;;;;;;;5066753;28;20044;-48
2023/09/07 14:05:41;;;;;;;7.80;2.70;;;;;;;;;;5074492;28;20028;-45
2023/09/07 14:08:07;;;;;;;10.45;3.03;;;;;;;;;;5072480;28;20028;-45
2023/09/07 14:10:32;;;;;;;5.32;2.53;;;;;;;;;;5066297;28;20197;-47
2023/09/07 14:12:57;;;;;;;8.15;2.35;;;;;;;;;;5074800;28;20021;-45
2023/09/07 14:15:23;;;;;;;9.23;2.75;;;;;;;;;;5072132;28;20039;-47
2023/09/07 14:17:48;;;;;;;5.57;2.30;;;;;;;;;;5063878;28;20079;-47
2023/09/07 14:20:14;;;;;;;7.70;2.40;;;;;;;;;;5070692;28;20038;-48
2023/09/07 14:22:39;;;;;;;4.78;2.58;;;;;;;;;;5075049;28;20020;-44
2023/09/07 14:25:05;;;;;;;2.65;2.30;;;;;;;;;;5074440;28;20094;-47
2023/09/07 14:27:31;;;;;;;3.97;2.15;;;;;;;;;;5073068;28;20532;-44
2023/09/07 14:29:56;;;;;;;4.07;2.40;;;;;;;;;;5074086;28;20056;-48
2023/09/07 14:32:21;;;;;;;5.30;2.58;;;;;;;;;;5075094;28;20036;-47
2023/09/07 14:34:47;;;;;;;5.55;2.60;;;;;;;;;;5074452;28;20042;-45
2023/09/07 14:37:12;;;;;;;6.30;2.10;;;;;;;;;;5075310;28;20028;-49
2023/09/07 14:39:38;;;;;;;4.65;2.53;;;;;;;;;;5072000;28;20182;-47